createdAt,value
2023-04-19T00:01:52.200Z,5.75
2023-04-19T00:04:29.796Z,5.38
2023-04-19T00:07:00.707Z,5.40
2023-04-19T00:09:32.116Z,5.82
2023-04-19T00:14:37.209Z,6.97
2023-04-19T00:17:06.742Z,6.10
2023-04-19T00:19:36.429Z,6.30
2023-04-19T00:22:10.688Z,6.55
2023-04-19T00:24:42.051Z,5.95
2023-04-19T00:27:11.320Z,6.43
2023-04-19T00:29:44.142Z,6.75
2023-04-19T00:32:18.536Z,6.30
2023-04-19T00:34:49.239Z,6.97
2023-04-19T00:37:18.493Z,6.95
2023-04-19T00:39:49.626Z,6.15
2023-04-19T00:42:19.131Z,6.28
2023-04-19T00:44:50.014Z,6.20
2023-04-19T00:49:54.688Z,6.63
2023-04-19T00:52:24.401Z,6.45
2023-04-19T00:55:01.243Z,6.72
2023-04-19T00:57:34.438Z,6.68
2023-04-19T01:00:05.961Z,7.30
2023-04-19T01:05:05.228Z,7.28
2023-04-19T01:07:40.063Z,6.93
2023-04-19T01:10:11.953Z,5.38
2023-04-19T01:12:46.465Z,6.53
2023-04-19T01:15:15.839Z,6.45
2023-04-19T01:17:45.598Z,7.05
2023-04-19T01:20:15.163Z,7.45
2023-04-19T01:22:46.927Z,7.18
2023-04-19T01:27:56.111Z,6.95
2023-04-19T01:30:26.838Z,7.00
2023-04-19T01:32:58.122Z,6.25
2023-04-19T01:35:27.542Z,6.78
2023-04-19T01:37:59.118Z,6.00
2023-04-19T01:40:28.727Z,6.40
2023-04-19T01:42:57.926Z,5.90
2023-04-19T01:45:33.596Z,6.25
2023-04-19T01:48:04.255Z,7.05
2023-04-19T01:50:38.612Z,6.70
2023-04-19T01:53:09.972Z,6.43
2023-04-19T01:55:44.701Z,6.10
2023-04-19T01:58:13.858Z,6.40
2023-04-19T02:00:48.602Z,5.80
2023-04-19T02:03:23.149Z,6.32
2023-04-19T02:05:52.716Z,5.65
2023-04-19T02:08:27.311Z,6.20
2023-04-19T02:10:56.841Z,6.60
2023-04-19T02:13:26.203Z,6.80
2023-04-19T02:18:26.100Z,5.88
2023-04-19T02:20:55.310Z,6.35
2023-04-19T02:23:31.503Z,6.20
2023-04-19T02:26:03.114Z,5.35
2023-04-19T02:28:32.667Z,5.57
2023-04-19T02:31:06.604Z,5.80
2023-04-19T02:33:38.199Z,6.18
2023-04-19T02:36:12.584Z,5.90
2023-04-19T02:38:43.937Z,5.43
2023-04-19T02:41:13.173Z,6.18
2023-04-19T02:43:42.394Z,6.95
2023-04-19T02:46:18.404Z,6.30
2023-04-19T02:48:48.104Z,6.40
2023-04-19T02:51:18.438Z,6.15
2023-04-19T02:53:49.855Z,6.25
2023-04-19T02:56:24.332Z,6.35
2023-04-19T02:58:56.810Z,6.00
2023-04-19T03:01:26.317Z,6.07
2023-04-19T03:03:56.234Z,5.80
2023-04-19T03:06:25.923Z,6.28
2023-04-19T03:08:57.282Z,5.72
2023-04-19T03:11:26.781Z,6.00
2023-04-19T03:14:01.385Z,5.43
2023-04-19T03:16:31.146Z,6.10
2023-04-19T03:19:06.354Z,5.78
2023-04-19T03:21:41.421Z,6.20
2023-04-19T03:24:13.074Z,5.60
2023-04-19T03:26:47.201Z,4.80
2023-04-19T03:29:17.503Z,5.90
2023-04-19T03:31:59.198Z,5.55
2023-04-19T03:34:32.580Z,6.32
2023-04-19T03:37:02.358Z,5.75
2023-04-19T03:39:35.350Z,6.15
2023-04-19T03:42:08.184Z,5.20
2023-04-19T03:44:49.742Z,5.10
2023-04-19T03:47:26.422Z,5.05
2023-04-19T03:49:59.134Z,6.20
2023-04-19T03:52:31.063Z,5.05
2023-04-19T03:55:05.740Z,6.13
2023-04-19T03:57:41.699Z,5.43
2023-04-19T04:00:29.127Z,5.95
2023-04-19T04:05:37.490Z,4.85
2023-04-19T04:08:07.035Z,5.38
2023-04-19T04:10:38.467Z,5.50
2023-04-19T04:13:09.288Z,5.82
2023-04-19T04:15:50.022Z,6.07
2023-04-19T04:18:19.669Z,5.43
2023-04-19T04:20:49.854Z,4.85
2023-04-19T04:23:26.141Z,5.18
2023-04-19T04:26:02.323Z,5.10
2023-04-19T04:28:46.843Z,5.50
2023-04-19T04:31:17.723Z,6.03
2023-04-19T04:33:53.446Z,5.25
2023-04-19T04:36:25.698Z,5.90
2023-04-19T04:38:56.865Z,5.22
2023-04-19T04:41:31.047Z,5.97
2023-04-19T04:44:12.820Z,5.40
2023-04-19T04:46:45.640Z,6.50
2023-04-19T04:49:19.908Z,6.30
2023-04-19T04:51:49.766Z,6.45
2023-04-19T04:54:19.795Z,6.30
2023-04-19T04:56:56.422Z,4.57
2023-04-19T04:59:31.473Z,6.10
2023-04-19T05:02:00.977Z,5.97
2023-04-19T05:04:30.405Z,6.82
2023-04-19T05:07:01.617Z,5.85
2023-04-19T05:09:36.257Z,5.50
2023-04-19T05:12:08.533Z,5.10
2023-04-19T05:14:38.390Z,5.43
2023-04-19T05:17:08.060Z,5.45
2023-04-19T05:19:42.773Z,5.22
2023-04-19T05:22:13.196Z,5.22
2023-04-19T05:24:42.634Z,5.78
2023-04-19T05:27:14.737Z,6.10
2023-04-19T05:29:44.801Z,6.32
2023-04-19T05:32:14.050Z,5.90
2023-04-19T05:34:50.754Z,6.45
2023-04-19T05:37:23.843Z,5.60
2023-04-19T05:39:54.191Z,5.63
2023-04-19T05:42:25.574Z,6.28
2023-04-19T05:44:54.833Z,6.10
2023-04-19T05:47:25.077Z,6.20
2023-04-19T05:50:11.298Z,6.30
2023-04-19T05:52:50.874Z,6.43
2023-04-19T05:55:25.521Z,6.25
2023-04-19T05:57:56.707Z,6.90
2023-04-19T06:00:37.835Z,6.70
2023-04-19T06:03:12.941Z,5.88
2023-04-19T06:05:42.983Z,6.00
2023-04-19T06:08:12.467Z,5.53
2023-04-19T06:10:57.112Z,6.10
2023-04-19T06:13:35.781Z,5.35
2023-04-19T06:18:45.083Z,5.88
2023-04-19T06:21:14.368Z,6.88
2023-04-19T06:23:48.820Z,6.07
2023-04-19T06:26:18.240Z,5.65
2023-04-19T06:28:49.674Z,5.85
2023-04-19T06:31:19.651Z,5.57
2023-04-19T06:33:48.987Z,5.90
2023-04-19T06:36:23.304Z,6.05
2023-04-19T06:38:53.173Z,5.95
2023-04-19T06:41:22.734Z,6.05
2023-04-19T06:43:53.846Z,5.32
2023-04-19T06:46:23.573Z,5.40
2023-04-19T06:48:52.856Z,4.90
2023-04-19T06:51:27.253Z,4.55
2023-04-19T06:53:56.652Z,4.32
2023-04-19T06:56:50.413Z,5.18
2023-04-19T06:59:23.073Z,4.72
2023-04-19T07:01:52.754Z,4.95
2023-04-19T07:04:22.513Z,4.57
2023-04-19T07:06:52.660Z,4.80
2023-04-19T07:09:21.834Z,4.90
2023-04-19T07:11:51.288Z,3.67
2023-04-19T07:14:23.443Z,4.40
2023-04-19T07:16:53.388Z,4.03
2023-04-19T07:19:23.265Z,3.65
2023-04-19T07:21:58.303Z,4.63
2023-04-19T07:24:29.412Z,3.80
2023-04-19T07:26:58.716Z,3.90
2023-04-19T07:29:37.654Z,3.50
2023-04-19T07:32:07.639Z,3.20
2023-04-19T07:34:38.622Z,3.60
2023-04-19T07:37:10.469Z,3.65
2023-04-19T07:39:40.438Z,3.70
2023-04-19T07:42:09.897Z,3.55
2023-04-19T07:44:46.395Z,3.67
2023-04-19T07:47:22.340Z,4.00
2023-04-19T07:49:54.414Z,3.03
2023-04-19T07:52:23.838Z,2.88
2023-04-19T07:54:53.102Z,3.72
2023-04-19T07:57:22.574Z,3.20
2023-04-19T08:00:02.655Z,3.13
2023-04-19T08:02:51.377Z,3.35
2023-04-19T08:05:21.298Z,3.35
2023-04-19T08:07:51.023Z,3.00
2023-04-19T08:10:22.210Z,3.22
2023-04-19T08:13:05.065Z,3.40
2023-04-19T08:16:20.239Z,3.22
2023-04-19T08:18:27.352Z,3.40
2023-04-19T08:20:56.945Z,3.05
2023-04-19T08:23:32.065Z,3.00
2023-04-19T08:26:16.136Z,13.13
2023-04-19T08:28:45.342Z,3.50
2023-04-19T08:31:16.790Z,3.65
2023-04-19T08:33:51.172Z,3.35
2023-04-19T08:36:25.568Z,2.75
2023-04-19T08:39:10.038Z,3.28
2023-04-19T08:41:48.010Z,3.17
2023-04-19T08:44:32.512Z,2.45
2023-04-19T08:47:09.056Z,3.03
2023-04-19T08:49:43.164Z,3.50
2023-04-19T08:52:19.182Z,3.17
2023-04-19T08:54:48.746Z,3.03
2023-04-19T08:57:23.205Z,3.40
2023-04-19T08:59:55.400Z,3.38
2023-04-19T09:02:48.114Z,3.30
2023-04-19T09:05:18.972Z,3.40
2023-04-19T09:07:53.660Z,3.13
2023-04-19T09:10:25.687Z,3.30
2023-04-19T09:13:05.305Z,3.42
2023-04-19T09:15:46.136Z,3.20
2023-04-19T09:18:18.974Z,3.30
2023-04-19T09:20:48.965Z,3.20
2023-04-19T09:23:25.442Z,3.70
2023-04-19T09:26:21.533Z,4.18
2023-04-19T09:28:58.862Z,3.92
2023-04-19T09:31:50.182Z,3.40
2023-04-19T09:34:23.814Z,3.50
2023-04-19T09:37:04.431Z,3.30
2023-04-19T09:39:41.497Z,3.50
2023-04-19T09:42:11.066Z,3.40
2023-04-19T09:47:34.710Z,3.42
2023-04-19T09:50:21.945Z,3.42
2023-04-19T09:52:52.993Z,3.33
2023-04-19T09:55:30.197Z,3.60
2023-04-19T09:58:01.014Z,3.15
2023-04-19T10:00:36.017Z,3.42
2023-04-19T10:03:12.804Z,3.73
2023-04-19T10:05:45.654Z,3.40
2023-04-19T10:08:16.513Z,3.72
2023-04-19T10:10:48.986Z,3.00
2023-04-19T10:13:27.089Z,4.20
2023-04-19T10:16:01.803Z,3.95
2023-04-19T10:18:38.580Z,3.67
2023-04-19T10:21:12.668Z,4.10
2023-04-19T10:23:42.471Z,4.20
2023-04-19T10:26:11.714Z,4.30
2023-04-19T10:28:41.080Z,3.95
2023-04-19T10:31:14.880Z,4.07
2023-04-19T10:33:44.331Z,3.88
2023-04-19T10:36:17.782Z,3.92
2023-04-19T10:38:55.171Z,3.72
2023-04-19T10:41:24.955Z,3.65
2023-04-19T10:44:15.011Z,4.07
2023-04-19T10:46:44.403Z,4.22
2023-04-19T10:49:13.912Z,3.50
2023-04-19T10:51:54.561Z,5.25
2023-04-19T10:54:32.031Z,3.10
2023-04-19T10:57:06.361Z,3.60
2023-04-19T10:59:36.886Z,3.22
2023-04-19T11:02:08.059Z,3.70
2023-04-19T11:05:14.086Z,3.30
2023-04-19T11:07:45.889Z,3.33
2023-04-19T11:12:45.915Z,3.10
2023-04-19T11:15:16.004Z,3.60
2023-04-19T11:17:45.965Z,2.95
2023-04-19T11:20:15.472Z,3.33
2023-04-19T11:22:52.980Z,3.35
2023-04-19T11:25:24.847Z,3.40
2023-04-19T11:27:55.783Z,2.60
2023-04-19T11:30:33.186Z,3.30
2023-04-19T11:33:02.979Z,3.53
2023-04-19T11:35:32.356Z,3.28
2023-04-19T11:38:04.845Z,3.22
2023-04-19T11:40:34.579Z,3.17
2023-04-19T11:43:10.305Z,3.72
2023-04-19T11:45:40.701Z,3.05
2023-04-19T11:48:16.907Z,3.15
2023-04-19T11:50:49.123Z,3.03
2023-04-19T11:53:22.656Z,3.30
2023-04-19T11:55:53.460Z,3.28
2023-04-19T11:58:35.976Z,3.20
2023-04-19T12:01:08.058Z,2.30
2023-04-19T12:03:42.580Z,3.70
2023-04-19T12:06:14.315Z,2.40
2023-04-19T12:11:51.071Z,3.50
2023-04-19T12:14:22.652Z,2.78
2023-04-19T12:19:46.427Z,3.08
2023-04-19T12:22:23.808Z,3.45
2023-04-19T12:24:55.873Z,3.20
2023-04-19T12:27:25.379Z,3.30
2023-04-19T12:29:54.581Z,3.38
2023-04-19T12:32:34.222Z,3.60
2023-04-19T12:35:03.490Z,3.67
2023-04-19T12:37:33.677Z,2.80
2023-04-19T12:40:05.863Z,3.45
2023-04-19T12:42:35.303Z,2.40
2023-04-19T12:52:00.854Z,3.08
2023-04-19T12:54:31.000Z,3.33
2023-04-19T12:57:03.267Z,3.05
2023-04-19T12:59:37.941Z,3.05
2023-04-19T13:02:08.725Z,3.20
2023-04-19T13:04:39.019Z,3.10
2023-04-19T13:07:10.558Z,3.15
2023-04-19T13:09:40.100Z,2.70
2023-04-19T13:14:47.766Z,3.25
2023-04-19T13:17:17.223Z,2.72
2023-04-19T13:19:52.089Z,3.22
2023-04-19T13:22:33.717Z,5.10
2023-04-19T13:25:05.052Z,2.72
2023-04-19T13:27:34.915Z,3.20
2023-04-19T13:30:04.323Z,3.15
2023-04-19T13:32:42.663Z,3.15
2023-04-19T13:37:50.943Z,3.03
2023-04-19T13:40:25.539Z,3.15
2023-04-19T13:42:56.504Z,3.03
2023-04-19T13:50:38.150Z,2.60
2023-04-19T13:53:14.865Z,2.60
2023-04-19T13:56:03.064Z,2.88
2023-04-19T14:01:08.604Z,2.70
2023-04-19T14:03:53.474Z,3.03
2023-04-19T14:06:23.414Z,3.10
2023-04-19T14:11:41.864Z,3.35
2023-04-19T14:14:24.483Z,2.65
2023-04-19T14:17:06.782Z,2.97
2023-04-19T14:19:41.641Z,2.95
2023-04-19T14:22:11.426Z,2.80
2023-04-19T14:25:01.536Z,2.63
2023-04-19T14:27:33.012Z,2.70
2023-04-19T14:30:02.909Z,2.70
2023-04-19T14:32:34.709Z,3.63
2023-04-19T14:35:29.485Z,3.30
2023-04-19T14:37:58.909Z,3.08
2023-04-19T14:40:30.437Z,3.22
2023-04-19T14:43:00.216Z,2.90
2023-04-19T14:45:29.712Z,2.88
2023-04-19T14:47:59.520Z,3.08
2023-04-19T14:50:29.072Z,2.50
2023-04-19T14:53:23.796Z,2.40
2023-04-19T14:55:55.480Z,2.40
2023-04-19T15:00:54.478Z,2.72
2023-04-19T15:03:24.086Z,3.20
2023-04-19T15:05:53.652Z,2.67
2023-04-19T15:08:30.271Z,2.20
2023-04-19T15:11:22.270Z,2.90
2023-04-19T15:14:06.949Z,2.58
2023-04-19T15:16:41.545Z,2.65
2023-04-19T15:19:11.103Z,2.60
2023-04-19T15:21:51.232Z,2.33
2023-04-19T15:24:36.163Z,2.65
2023-04-19T15:27:20.556Z,2.72
2023-04-19T15:29:51.595Z,2.70
2023-04-19T15:32:26.474Z,2.67
2023-04-19T15:35:00.814Z,3.03
2023-04-19T15:37:30.272Z,2.55
2023-04-19T15:40:01.832Z,2.22
2023-04-19T15:42:34.324Z,2.95
2023-04-19T15:45:04.856Z,3.05
2023-04-19T15:47:53.849Z,3.10
2023-04-19T15:50:44.124Z,2.72
2023-04-19T15:55:43.874Z,3.03
2023-04-19T15:58:15.639Z,3.35
2023-04-19T16:00:45.383Z,3.03
2023-04-19T16:06:05.614Z,3.10
2023-04-19T16:08:35.122Z,3.17
2023-04-19T16:11:04.477Z,3.65
2023-04-19T16:13:42.255Z,3.80
2023-04-19T16:21:35.375Z,3.63
2023-04-19T16:29:42.045Z,3.80
2023-04-19T16:32:12.293Z,3.30
2023-04-19T16:34:41.723Z,4.20
2023-04-19T16:37:11.407Z,3.75
2023-04-19T16:39:40.699Z,4.07
2023-04-19T16:42:25.009Z,3.42
2023-04-19T16:44:56.682Z,3.47
2023-04-19T16:47:26.250Z,3.83
2023-04-19T16:49:56.793Z,4.72
2023-04-19T16:52:32.593Z,4.13
2023-04-19T16:55:22.109Z,5.32
2023-04-19T17:00:30.350Z,3.75
2023-04-19T17:03:00.166Z,5.00
2023-04-19T17:05:59.825Z,4.47
2023-04-19T17:08:29.264Z,5.20
2023-04-19T17:10:58.590Z,5.78
2023-04-19T17:13:28.327Z,3.92
2023-04-19T17:16:04.818Z,5.60
2023-04-19T17:18:34.449Z,5.53
2023-04-19T17:21:04.067Z,5.28
2023-04-19T17:23:33.523Z,4.30
2023-04-19T17:26:22.897Z,4.00
2023-04-19T17:28:57.382Z,5.43
2023-04-19T17:31:29.266Z,4.55
2023-04-19T17:34:18.164Z,5.70
2023-04-19T17:36:47.668Z,5.43
2023-04-19T17:39:17.502Z,5.55
2023-04-19T17:42:06.144Z,4.60
2023-04-19T17:44:50.366Z,5.68
2023-04-19T17:47:27.185Z,3.35
2023-04-19T17:50:07.385Z,5.72
2023-04-19T17:52:42.424Z,4.93
2023-04-19T17:55:27.443Z,4.25
2023-04-19T18:00:46.153Z,3.70
2023-04-19T18:03:17.919Z,4.00
2023-04-19T18:05:58.240Z,4.63
2023-04-19T18:08:27.620Z,5.03
2023-04-19T18:10:56.988Z,4.53
2023-04-19T18:13:26.613Z,4.22
2023-04-19T18:18:53.052Z,4.30
2023-04-19T18:24:04.145Z,4.65
2023-04-19T18:26:54.780Z,2.92
2023-04-19T18:29:37.345Z,3.70
2023-04-19T18:32:07.279Z,4.30
2023-04-19T18:34:43.511Z,3.58
2023-04-19T18:37:34.527Z,5.68
2023-04-19T18:40:05.424Z,4.70
2023-04-19T18:42:35.173Z,4.45
2023-04-19T18:45:05.028Z,5.10
2023-04-19T18:47:52.779Z,4.38
2023-04-19T18:50:24.200Z,5.13
2023-04-19T18:52:53.544Z,3.75
2023-04-19T18:55:22.847Z,5.40
2023-04-19T18:57:52.510Z,4.20
2023-04-19T19:00:23.662Z,4.63
2023-04-19T19:03:00.867Z,5.55
2023-04-19T19:05:54.730Z,5.30
2023-04-19T19:08:24.520Z,4.00
2023-04-19T19:13:37.632Z,4.65
2023-04-19T19:16:07.537Z,4.60
2023-04-19T19:18:37.120Z,4.10
2023-04-19T19:21:08.844Z,4.00
2023-04-19T19:26:14.240Z,4.10
2023-04-19T19:28:43.636Z,4.22
2023-04-19T19:31:12.967Z,3.88
2023-04-19T19:33:50.150Z,4.13
2023-04-19T19:36:24.957Z,3.55
2023-04-19T19:42:05.480Z,3.95
2023-04-19T19:44:54.722Z,3.70
2023-04-19T19:47:24.615Z,3.67
2023-04-19T19:50:39.106Z,3.97
2023-04-19T19:52:48.446Z,3.78
2023-04-19T19:55:17.902Z,3.58
2023-04-19T19:58:23.876Z,4.00
2023-04-19T20:00:46.140Z,4.20
2023-04-19T20:03:40.207Z,4.20
2023-04-19T20:09:11.605Z,3.55
2023-04-19T20:11:41.489Z,4.40
2023-04-19T20:14:10.856Z,4.00
2023-04-19T20:16:40.297Z,4.18
2023-04-19T20:19:12.332Z,5.20
2023-04-19T20:24:14.962Z,4.40
2023-04-19T20:26:44.749Z,4.00
2023-04-19T20:29:14.054Z,4.60
2023-04-19T20:31:44.487Z,3.70
2023-04-19T20:34:13.901Z,3.72
2023-04-19T20:36:46.360Z,4.10
2023-04-19T20:39:18.663Z,3.95
2023-04-19T20:41:50.918Z,3.65
2023-04-19T20:44:20.275Z,4.20
2023-04-19T20:46:50.775Z,4.43
2023-04-19T20:49:27.378Z,3.85
2023-04-19T20:52:15.026Z,4.10
2023-04-19T20:54:46.378Z,4.03
2023-04-19T20:57:15.729Z,4.22
2023-04-19T20:59:46.852Z,3.75
2023-04-19T21:02:23.122Z,4.15
2023-04-19T21:04:52.690Z,4.15
2023-04-19T21:07:22.107Z,4.20
2023-04-19T21:09:53.496Z,4.40
2023-04-19T21:12:22.803Z,3.67
2023-04-19T21:14:52.431Z,4.20
2023-04-19T21:17:22.768Z,3.58
2023-04-19T21:19:52.097Z,4.07
2023-04-19T21:22:21.412Z,4.10
2023-04-19T21:24:53.059Z,4.63
2023-04-19T21:27:22.549Z,5.03
2023-04-19T21:29:53.431Z,4.68
2023-04-19T21:32:26.155Z,4.43
2023-04-19T21:35:00.879Z,4.20
2023-04-19T21:37:31.354Z,3.80
2023-04-19T21:40:10.017Z,3.90
2023-04-19T21:42:39.264Z,4.00
2023-04-19T21:45:09.941Z,3.85
2023-04-19T21:47:49.524Z,3.75
2023-04-19T21:50:19.031Z,3.33
2023-04-19T21:52:48.352Z,3.80
2023-04-19T21:55:20.643Z,3.33
2023-04-19T21:57:50.921Z,3.55
2023-04-19T22:00:26.941Z,3.58
2023-04-19T22:02:56.902Z,4.00
2023-04-19T22:05:26.411Z,3.90
2023-04-19T22:08:01.650Z,4.25
2023-04-19T22:10:33.430Z,3.88
2023-04-19T22:13:04.560Z,3.42
2023-04-19T22:15:34.459Z,3.92
2023-04-19T22:18:04.817Z,3.72
2023-04-19T22:20:34.598Z,3.72
2023-04-19T22:23:04.028Z,3.17
2023-04-19T22:25:35.292Z,3.90
2023-04-19T22:28:06.848Z,2.90
2023-04-19T22:30:42.224Z,3.50
2023-04-19T22:33:11.702Z,3.33
2023-04-19T22:35:41.052Z,3.30
2023-04-19T22:38:16.711Z,3.72
2023-04-19T22:40:47.824Z,3.28
2023-04-19T22:43:17.713Z,3.40
2023-04-19T22:45:47.529Z,3.25
2023-04-19T22:48:22.066Z,3.33
2023-04-19T22:50:52.271Z,3.10
2023-04-19T22:53:21.589Z,3.10
2023-04-19T22:55:53.163Z,3.30
2023-04-19T22:58:22.511Z,3.15
2023-04-19T23:00:52.184Z,3.00
2023-04-19T23:03:21.837Z,3.28
2023-04-19T23:05:53.851Z,3.28
2023-04-19T23:08:40.451Z,2.80
2023-04-19T23:11:11.854Z,2.60
2023-04-19T23:13:41.464Z,3.03
2023-04-19T23:16:12.866Z,3.03
2023-04-19T23:18:48.861Z,3.10
2023-04-19T23:21:18.263Z,2.72
2023-04-19T23:23:52.629Z,3.20
2023-04-19T23:26:23.778Z,3.30
2023-04-19T23:28:58.395Z,3.08
2023-04-19T23:31:27.755Z,3.35
2023-04-19T23:34:03.806Z,3.90
2023-04-19T23:36:33.172Z,3.72
2023-04-19T23:39:02.738Z,3.42
2023-04-19T23:41:35.061Z,3.38
2023-04-19T23:44:04.419Z,3.20
2023-04-19T23:46:33.896Z,2.97
2023-04-19T23:49:08.219Z,2.95
2023-04-19T23:51:38.058Z,2.95
2023-04-19T23:54:07.323Z,2.90
2023-04-19T23:56:45.131Z,3.40
2023-04-19T23:59:14.768Z,3.05
